sensor_id;sensor_type;location;lat;lon;timestamp;temperature;humidity
4090;DHT22;2059;48.538;12.146;2024-02-21T00:04:45;7.60;98.70
4090;DHT22;2059;48.538;12.146;2024-02-21T00:09:48;7.40;98.70
4090;DHT22;2059;48.538;12.146;2024-02-21T00:14:50;7.40;98.70
4090;DHT22;2059;48.538;12.146;2024-02-21T00:19:52;7.50;98.80
4090;DHT22;2059;48.538;12.146;2024-02-21T00:24:55;7.50;98.60
4090;DHT22;2059;48.538;12.146;2024-02-21T00:29:58;7.40;98.70
4090;DHT22;2059;48.538;12.146;2024-02-21T00:35:00;7.70;98.40
4090;DHT22;2059;48.538;12.146;2024-02-21T00:40:04;7.40;98.60
4090;DHT22;2059;48.538;12.146;2024-02-21T00:45:07;7.50;98.60
4090;DHT22;2059;48.538;12.146;2024-02-21T00:50:09;7.60;98.40
4090;DHT22;2059;48.538;12.146;2024-02-21T00:55:12;7.40;98.60
4090;DHT22;2059;48.538;12.146;2024-02-21T01:00:15;7.60;98.40
4090;DHT22;2059;48.538;12.146;2024-02-21T01:05:17;7.50;98.50
4090;DHT22;2059;48.538;12.146;2024-02-21T01:10:21;7.20;99.10
4090;DHT22;2059;48.538;12.146;2024-02-21T01:15:23;7.30;98.90
4090;DHT22;2059;48.538;12.146;2024-02-21T01:20:25;7.20;98.80
4090;DHT22;2059;48.538;12.146;2024-02-21T01:25:28;7.10;99.00
4090;DHT22;2059;48.538;12.146;2024-02-21T01:30:29;7.00;99.10
4090;DHT22;2059;48.538;12.146;2024-02-21T01:35:31;7.00;99.40
4090;DHT22;2059;48.538;12.146;2024-02-21T01:40:34;7.10;99.10
4090;DHT22;2059;48.538;12.146;2024-02-21T01:45:36;7.10;99.10
4090;DHT22;2059;48.538;12.146;2024-02-21T01:50:38;6.90;99.30
4090;DHT22;2059;48.538;12.146;2024-02-21T01:55:41;6.90;99.20
4090;DHT22;2059;48.538;12.146;2024-02-21T02:00:43;7.10;99.20
4090;DHT22;2059;48.538;12.146;2024-02-21T02:05:46;7.20;99.10
4090;DHT22;2059;48.538;12.146;2024-02-21T02:10:49;7.00;99.10
4090;DHT22;2059;48.538;12.146;2024-02-21T02:15:51;7.10;99.00
4090;DHT22;2059;48.538;12.146;2024-02-21T02:20:53;7.20;98.80
4090;DHT22;2059;48.538;12.146;2024-02-21T02:25:56;7.10;98.90
4090;DHT22;2059;48.538;12.146;2024-02-21T02:30:57;7.00;99.00
4090;DHT22;2059;48.538;12.146;2024-02-21T02:35:59;7.00;99.10
4090;DHT22;2059;48.538;12.146;2024-02-21T02:41:02;7.20;98.90
4090;DHT22;2059;48.538;12.146;2024-02-21T02:46:04;7.20;98.90
4090;DHT22;2059;48.538;12.146;2024-02-21T02:51:06;7.30;98.80
4090;DHT22;2059;48.538;12.146;2024-02-21T02:56:14;7.30;98.80
4090;DHT22;2059;48.538;12.146;2024-02-21T03:01:16;7.30;98.90
4090;DHT22;2059;48.538;12.146;2024-02-21T03:06:17;7.10;98.90
4090;DHT22;2059;48.538;12.146;2024-02-21T03:11:20;7.40;98.70
4090;DHT22;2059;48.538;12.146;2024-02-21T03:16:29;7.10;99.10
4090;DHT22;2059;48.538;12.146;2024-02-21T03:21:30;6.90;99.20
4090;DHT22;2059;48.538;12.146;2024-02-21T03:26:33;6.90;99.40
4090;DHT22;2059;48.538;12.146;2024-02-21T03:31:35;7.10;99.10
4090;DHT22;2059;48.538;12.146;2024-02-21T03:36:37;7.00;99.40
4090;DHT22;2059;48.538;12.146;2024-02-21T03:41:40;7.20;99.20
4090;DHT22;2059;48.538;12.146;2024-02-21T03:46:42;7.00;99.30
4090;DHT22;2059;48.538;12.146;2024-02-21T03:51:44;7.10;99.30
4090;DHT22;2059;48.538;12.146;2024-02-21T03:56:47;7.20;99.20
4090;DHT22;2059;48.538;12.146;2024-02-21T04:01:51;7.10;99.40
4090;DHT22;2059;48.538;12.146;2024-02-21T04:06:53;6.90;99.60
4090;DHT22;2059;48.538;12.146;2024-02-21T04:11:56;7.00;99.80
4090;DHT22;2059;48.538;12.146;2024-02-21T04:17:12;7.00;99.80
4090;DHT22;2059;48.538;12.146;2024-02-21T04:22:17;6.90;99.80
4090;DHT22;2059;48.538;12.146;2024-02-21T04:27:20;6.90;99.90
4090;DHT22;2059;48.538;12.146;2024-02-21T04:32:22;7.00;99.80
4090;DHT22;2059;48.538;12.146;2024-02-21T04:37:24;7.30;99.30
4090;DHT22;2059;48.538;12.146;2024-02-21T04:42:27;7.10;99.40
4090;DHT22;2059;48.538;12.146;2024-02-21T04:47:29;6.80;99.80
4090;DHT22;2059;48.538;12.146;2024-02-21T04:52:31;6.70;99.90
4090;DHT22;2059;48.538;12.146;2024-02-21T04:57:35;7.00;99.60
4090;DHT22;2059;48.538;12.146;2024-02-21T05:02:36;6.80;99.80
4090;DHT22;2059;48.538;12.146;2024-02-21T05:07:38;6.70;99.90
4090;DHT22;2059;48.538;12.146;2024-02-21T05:12:42;6.70;99.90
4090;DHT22;2059;48.538;12.146;2024-02-21T05:17:44;6.70;99.90
4090;DHT22;2059;48.538;12.146;2024-02-21T05:22:45;6.80;99.90
4090;DHT22;2059;48.538;12.146;2024-02-21T05:27:50;6.70;99.90
4090;DHT22;2059;48.538;12.146;2024-02-21T05:32:53;6.70;99.90
4090;DHT22;2059;48.538;12.146;2024-02-21T05:37:55;6.70;99.90
4090;DHT22;2059;48.538;12.146;2024-02-21T05:42:58;6.90;99.90
4090;DHT22;2059;48.538;12.146;2024-02-21T05:48:00;6.80;99.80
4090;DHT22;2059;48.538;12.146;2024-02-21T05:53:03;7.00;99.80
4090;DHT22;2059;48.538;12.146;2024-02-21T05:58:06;6.70;99.90
4090;DHT22;2059;48.538;12.146;2024-02-21T06:03:11;6.70;99.90
4090;DHT22;2059;48.538;12.146;2024-02-21T06:08:13;6.70;99.90
4090;DHT22;2059;48.538;12.146;2024-02-21T06:13:16;6.80;99.90
4090;DHT22;2059;48.538;12.146;2024-02-21T06:18:20;6.90;99.90
4090;DHT22;2059;48.538;12.146;2024-02-21T06:23:22;6.90;99.90
4090;DHT22;2059;48.538;12.146;2024-02-21T06:28:25;6.90;99.80
4090;DHT22;2059;48.538;12.146;2024-02-21T06:33:28;6.80;99.90
4090;DHT22;2059;48.538;12.146;2024-02-21T06:38:29;6.80;99.90
4090;DHT22;2059;48.538;12.146;2024-02-21T06:43:33;6.80;99.90
4090;DHT22;2059;48.538;12.146;2024-02-21T06:48:35;7.00;99.90
4090;DHT22;2059;48.538;12.146;2024-02-21T06:53:38;6.90;99.90
4090;DHT22;2059;48.538;12.146;2024-02-21T06:58:42;7.10;99.90
4090;DHT22;2059;48.538;12.146;2024-02-21T07:03:44;7.60;99.30
4090;DHT22;2059;48.538;12.146;2024-02-21T07:08:46;7.90;99.10
4090;DHT22;2059;48.538;12.146;2024-02-21T07:13:49;8.10;98.70
4090;DHT22;2059;48.538;12.146;2024-02-21T07:18:51;8.20;98.20
4090;DHT22;2059;48.538;12.146;2024-02-21T07:23:53;8.20;98.10
4090;DHT22;2059;48.538;12.146;2024-02-21T07:28:56;8.10;98.40
4090;DHT22;2059;48.538;12.146;2024-02-21T07:33:57;8.30;97.90
4090;DHT22;2059;48.538;12.146;2024-02-21T07:38:59;8.40;97.50
4090;DHT22;2059;48.538;12.146;2024-02-21T07:44:02;8.30;98.30
4090;DHT22;2059;48.538;12.146;2024-02-21T07:49:04;8.20;98.50
4090;DHT22;2059;48.538;12.146;2024-02-21T07:54:06;7.90;99.40
4090;DHT22;2059;48.538;12.146;2024-02-21T07:59:09;8.00;99.10
4090;DHT22;2059;48.538;12.146;2024-02-21T08:04:11;8.30;98.80
4090;DHT22;2059;48.538;12.146;2024-02-21T08:09:12;8.40;98.60
4090;DHT22;2059;48.538;12.146;2024-02-21T08:14:15;8.30;97.10
4090;DHT22;2059;48.538;12.146;2024-02-21T08:19:17;8.10;98.00
4090;DHT22;2059;48.538;12.146;2024-02-21T08:24:19;8.60;97.40
4090;DHT22;2059;48.538;12.146;2024-02-21T08:29:24;8.70;96.90
4090;DHT22;2059;48.538;12.146;2024-02-21T08:34:26;9.30;95.90
4090;DHT22;2059;48.538;12.146;2024-02-21T08:39:29;9.30;95.90
4090;DHT22;2059;48.538;12.146;2024-02-21T08:44:32;9.70;94.70
4090;DHT22;2059;48.538;12.146;2024-02-21T08:49:34;10.10;93.70
4090;DHT22;2059;48.538;12.146;2024-02-21T08:54:36;10.10;93.10
4090;DHT22;2059;48.538;12.146;2024-02-21T08:59:39;10.50;92.70
4090;DHT22;2059;48.538;12.146;2024-02-21T09:04:41;10.80;91.60
4090;DHT22;2059;48.538;12.146;2024-02-21T09:09:42;10.50;91.60
4090;DHT22;2059;48.538;12.146;2024-02-21T09:14:45;10.50;91.50
4090;DHT22;2059;48.538;12.146;2024-02-21T09:19:51;10.40;91.20
4090;DHT22;2059;48.538;12.146;2024-02-21T09:24:52;10.60;91.60
4090;DHT22;2059;48.538;12.146;2024-02-21T09:29:55;10.50;91.20
4090;DHT22;2059;48.538;12.146;2024-02-21T09:34:57;11.00;91.20
4090;DHT22;2059;48.538;12.146;2024-02-21T09:39:59;11.40;90.90
4090;DHT22;2059;48.538;12.146;2024-02-21T09:45:04;11.30;90.90
4090;DHT22;2059;48.538;12.146;2024-02-21T09:50:08;11.80;90.90
4090;DHT22;2059;48.538;12.146;2024-02-21T09:55:11;12.10;90.60
4090;DHT22;2059;48.538;12.146;2024-02-21T10:00:16;11.70;91.10
4090;DHT22;2059;48.538;12.146;2024-02-21T10:05:21;11.60;91.20
4090;DHT22;2059;48.538;12.146;2024-02-21T10:10:25;12.20;91.20
4090;DHT22;2059;48.538;12.146;2024-02-21T10:15:29;12.30;90.20
4090;DHT22;2059;48.538;12.146;2024-02-21T10:20:31;12.60;90.00
4090;DHT22;2059;48.538;12.146;2024-02-21T10:25:32;12.80;90.60
4090;DHT22;2059;48.538;12.146;2024-02-21T10:30:35;12.80;90.10
4090;DHT22;2059;48.538;12.146;2024-02-21T10:35:37;13.10;90.00
4090;DHT22;2059;48.538;12.146;2024-02-21T10:40:39;13.70;87.70
4090;DHT22;2059;48.538;12.146;2024-02-21T10:45:42;13.90;87.30
4090;DHT22;2059;48.538;12.146;2024-02-21T10:50:56;13.70;87.90
4090;DHT22;2059;48.538;12.146;2024-02-21T10:56:02;14.10;86.90
4090;DHT22;2059;48.538;12.146;2024-02-21T11:01:08;14.60;85.00
4090;DHT22;2059;48.538;12.146;2024-02-21T11:06:10;14.10;85.40
4090;DHT22;2059;48.538;12.146;2024-02-21T11:11:13;13.90;86.40
4090;DHT22;2059;48.538;12.146;2024-02-21T11:16:23;14.30;86.50
4090;DHT22;2059;48.538;12.146;2024-02-21T11:21:33;14.60;83.20
4090;DHT22;2059;48.538;12.146;2024-02-21T11:26:37;15.10;82.70
4090;DHT22;2059;48.538;12.146;2024-02-21T11:31:41;14.60;82.50
4090;DHT22;2059;48.538;12.146;2024-02-21T11:36:47;14.50;81.30
4090;DHT22;2059;48.538;12.146;2024-02-21T11:42:03;14.20;82.60
4090;DHT22;2059;48.538;12.146;2024-02-21T11:47:06;14.50;82.80
4090;DHT22;2059;48.538;12.146;2024-02-21T11:52:08;14.80;80.90
4090;DHT22;2059;48.538;12.146;2024-02-21T11:57:10;14.80;80.80
4090;DHT22;2059;48.538;12.146;2024-02-21T12:02:15;14.90;81.60
4090;DHT22;2059;48.538;12.146;2024-02-21T12:07:17;14.80;80.70
4090;DHT22;2059;48.538;12.146;2024-02-21T12:12:20;15.30;79.70
4090;DHT22;2059;48.538;12.146;2024-02-21T12:17:23;15.00;79.10
4090;DHT22;2059;48.538;12.146;2024-02-21T12:22:25;15.10;79.90
4090;DHT22;2059;48.538;12.146;2024-02-21T12:27:27;15.10;79.30
4090;DHT22;2059;48.538;12.146;2024-02-21T12:32:30;15.10;78.50
4090;DHT22;2059;48.538;12.146;2024-02-21T12:37:35;15.50;78.60
4090;DHT22;2059;48.538;12.146;2024-02-21T12:42:38;15.50;77.80
4090;DHT22;2059;48.538;12.146;2024-02-21T12:47:41;15.70;77.10
4090;DHT22;2059;48.538;12.146;2024-02-21T12:52:43;15.30;77.60
4090;DHT22;2059;48.538;12.146;2024-02-21T12:57:45;15.90;74.90
4090;DHT22;2059;48.538;12.146;2024-02-21T13:02:48;15.90;73.40
4090;DHT22;2059;48.538;12.146;2024-02-21T13:07:50;15.70;75.10
4090;DHT22;2059;48.538;12.146;2024-02-21T13:12:52;15.60;75.40
4090;DHT22;2059;48.538;12.146;2024-02-21T13:17:56;15.00;75.70
4090;DHT22;2059;48.538;12.146;2024-02-21T13:22:58;15.50;76.20
4090;DHT22;2059;48.538;12.146;2024-02-21T13:28:00;15.90;73.90
4090;DHT22;2059;48.538;12.146;2024-02-21T13:33:06;15.70;73.40
4090;DHT22;2059;48.538;12.146;2024-02-21T13:38:08;15.60;74.80
4090;DHT22;2059;48.538;12.146;2024-02-21T13:43:11;15.40;73.50
4090;DHT22;2059;48.538;12.146;2024-02-21T13:48:14;15.20;73.80
4090;DHT22;2059;48.538;12.146;2024-02-21T13:53:17;15.80;71.60
4090;DHT22;2059;48.538;12.146;2024-02-21T13:58:19;15.90;71.20
4090;DHT22;2059;48.538;12.146;2024-02-21T14:03:23;15.50;71.40
4090;DHT22;2059;48.538;12.146;2024-02-21T14:08:26;15.30;73.10
4090;DHT22;2059;48.538;12.146;2024-02-21T14:13:28;15.30;70.70
4090;DHT22;2059;48.538;12.146;2024-02-21T14:18:31;15.70;71.80
4090;DHT22;2059;48.538;12.146;2024-02-21T14:23:33;15.90;70.20
4090;DHT22;2059;48.538;12.146;2024-02-21T14:28:35;15.80;68.40
4090;DHT22;2059;48.538;12.146;2024-02-21T14:33:38;16.00;70.00
4090;DHT22;2059;48.538;12.146;2024-02-21T14:38:40;15.90;68.40
4090;DHT22;2059;48.538;12.146;2024-02-21T14:43:43;15.70;68.80
4090;DHT22;2059;48.538;12.146;2024-02-21T14:48:46;15.80;68.70
4090;DHT22;2059;48.538;12.146;2024-02-21T14:53:48;15.80;68.40
4090;DHT22;2059;48.538;12.146;2024-02-21T14:58:50;15.70;69.00
4090;DHT22;2059;48.538;12.146;2024-02-21T15:03:54;16.00;67.50
4090;DHT22;2059;48.538;12.146;2024-02-21T15:08:56;15.60;67.70
4090;DHT22;2059;48.538;12.146;2024-02-21T15:13:58;15.40;68.00
4090;DHT22;2059;48.538;12.146;2024-02-21T15:19:01;15.50;68.30
4090;DHT22;2059;48.538;12.146;2024-02-21T15:24:04;15.20;67.60
4090;DHT22;2059;48.538;12.146;2024-02-21T15:29:05;15.20;69.00
4090;DHT22;2059;48.538;12.146;2024-02-21T15:34:09;15.10;68.70
4090;DHT22;2059;48.538;12.146;2024-02-21T15:39:11;14.90;67.50
4090;DHT22;2059;48.538;12.146;2024-02-21T15:44:12;14.80;72.40
4090;DHT22;2059;48.538;12.146;2024-02-21T15:49:16;14.50;75.50
4090;DHT22;2059;48.538;12.146;2024-02-21T15:54:18;14.40;76.90
4090;DHT22;2059;48.538;12.146;2024-02-21T15:59:19;14.10;78.20
4090;DHT22;2059;48.538;12.146;2024-02-21T16:04:23;13.80;79.00
4090;DHT22;2059;48.538;12.146;2024-02-21T16:09:25;13.90;79.60
4090;DHT22;2059;48.538;12.146;2024-02-21T16:14:29;13.80;80.30
4090;DHT22;2059;48.538;12.146;2024-02-21T16:19:32;13.80;80.40
4090;DHT22;2059;48.538;12.146;2024-02-21T16:24:33;13.60;80.80
4090;DHT22;2059;48.538;12.146;2024-02-21T16:29:36;13.10;82.00
4090;DHT22;2059;48.538;12.146;2024-02-21T16:34:40;13.30;82.10
4090;DHT22;2059;48.538;12.146;2024-02-21T16:39:42;13.30;82.30
4090;DHT22;2059;48.538;12.146;2024-02-21T16:44:44;13.10;82.40
4090;DHT22;2059;48.538;12.146;2024-02-21T16:49:47;13.10;82.00
4090;DHT22;2059;48.538;12.146;2024-02-21T16:54:50;12.80;82.40
4090;DHT22;2059;48.538;12.146;2024-02-21T16:59:52;12.80;83.30
4090;DHT22;2059;48.538;12.146;2024-02-21T17:04:55;12.70;82.80
4090;DHT22;2059;48.538;12.146;2024-02-21T17:09:57;12.60;82.80
4090;DHT22;2059;48.538;12.146;2024-02-21T17:14:59;12.50;82.70
4090;DHT22;2059;48.538;12.146;2024-02-21T17:20:02;12.40;83.30
4090;DHT22;2059;48.538;12.146;2024-02-21T17:25:05;12.30;83.50
4090;DHT22;2059;48.538;12.146;2024-02-21T17:30:11;12.20;83.20
4090;DHT22;2059;48.538;12.146;2024-02-21T17:35:14;12.20;82.40
4090;DHT22;2059;48.538;12.146;2024-02-21T17:40:16;12.20;82.90
4090;DHT22;2059;48.538;12.146;2024-02-21T17:45:18;11.70;84.90
4090;DHT22;2059;48.538;12.146;2024-02-21T17:50:22;11.60;86.10
4090;DHT22;2059;48.538;12.146;2024-02-21T17:55:24;11.70;86.80
4090;DHT22;2059;48.538;12.146;2024-02-21T18:00:25;11.40;85.80
4090;DHT22;2059;48.538;12.146;2024-02-21T18:05:31;11.30;84.80
4090;DHT22;2059;48.538;12.146;2024-02-21T18:10:33;11.30;83.30
4090;DHT22;2059;48.538;12.146;2024-02-21T18:15:38;11.20;83.40
4090;DHT22;2059;48.538;12.146;2024-02-21T18:20:41;11.20;83.90
4090;DHT22;2059;48.538;12.146;2024-02-21T18:25:43;11.10;84.60
4090;DHT22;2059;48.538;12.146;2024-02-21T18:30:46;11.10;84.80
4090;DHT22;2059;48.538;12.146;2024-02-21T18:35:50;11.10;85.00
4090;DHT22;2059;48.538;12.146;2024-02-21T18:40:51;11.00;85.90
4090;DHT22;2059;48.538;12.146;2024-02-21T18:45:54;11.10;86.20
4090;DHT22;2059;48.538;12.146;2024-02-21T18:50:58;10.90;87.90
4090;DHT22;2059;48.538;12.146;2024-02-21T18:56:00;10.80;88.60
4090;DHT22;2059;48.538;12.146;2024-02-21T19:01:02;10.60;89.10
4090;DHT22;2059;48.538;12.146;2024-02-21T19:06:05;10.60;89.10
4090;DHT22;2059;48.538;12.146;2024-02-21T19:11:07;10.20;90.10
4090;DHT22;2059;48.538;12.146;2024-02-21T19:16:09;10.50;89.30
4090;DHT22;2059;48.538;12.146;2024-02-21T19:21:13;10.50;89.20
4090;DHT22;2059;48.538;12.146;2024-02-21T19:26:14;10.50;88.30
4090;DHT22;2059;48.538;12.146;2024-02-21T19:31:16;10.30;87.90
4090;DHT22;2059;48.538;12.146;2024-02-21T19:36:19;10.30;88.50
4090;DHT22;2059;48.538;12.146;2024-02-21T19:41:22;10.10;89.20
4090;DHT22;2059;48.538;12.146;2024-02-21T19:46:23;10.30;87.80
4090;DHT22;2059;48.538;12.146;2024-02-21T19:51:27;10.20;88.70
4090;DHT22;2059;48.538;12.146;2024-02-21T19:56:28;10.20;89.70
4090;DHT22;2059;48.538;12.146;2024-02-21T20:01:30;10.20;89.80
4090;DHT22;2059;48.538;12.146;2024-02-21T20:06:33;9.90;90.50
4090;DHT22;2059;48.538;12.146;2024-02-21T20:11:35;10.00;89.90
4090;DHT22;2059;48.538;12.146;2024-02-21T20:16:38;9.90;90.70
4090;DHT22;2059;48.538;12.146;2024-02-21T20:21:41;9.90;90.70
4090;DHT22;2059;48.538;12.146;2024-02-21T20:26:43;9.70;90.80
4090;DHT22;2059;48.538;12.146;2024-02-21T20:31:46;9.30;91.50
4090;DHT22;2059;48.538;12.146;2024-02-21T20:36:49;9.60;91.20
4090;DHT22;2059;48.538;12.146;2024-02-21T20:41:52;9.60;91.20
4090;DHT22;2059;48.538;12.146;2024-02-21T20:46:54;9.80;91.00
4090;DHT22;2059;48.538;12.146;2024-02-21T20:51:57;9.70;91.20
4090;DHT22;2059;48.538;12.146;2024-02-21T20:56:59;9.50;91.30
4090;DHT22;2059;48.538;12.146;2024-02-21T21:02:01;9.60;91.40
4090;DHT22;2059;48.538;12.146;2024-02-21T21:07:04;9.70;91.40
4090;DHT22;2059;48.538;12.146;2024-02-21T21:12:07;9.60;91.90
4090;DHT22;2059;48.538;12.146;2024-02-21T21:17:09;9.60;92.60
4090;DHT22;2059;48.538;12.146;2024-02-21T21:22:12;9.70;92.40
4090;DHT22;2059;48.538;12.146;2024-02-21T21:27:14;9.80;92.00
4090;DHT22;2059;48.538;12.146;2024-02-21T21:32:17;9.70;92.10
4090;DHT22;2059;48.538;12.146;2024-02-21T21:37:20;9.60;92.50
4090;DHT22;2059;48.538;12.146;2024-02-21T21:42:22;9.70;92.70
4090;DHT22;2059;48.538;12.146;2024-02-21T21:47:24;9.80;93.00
4090;DHT22;2059;48.538;12.146;2024-02-21T21:52:27;9.80;92.30
4090;DHT22;2059;48.538;12.146;2024-02-21T21:57:29;9.70;92.30
4090;DHT22;2059;48.538;12.146;2024-02-21T22:02:31;9.60;92.70
4090;DHT22;2059;48.538;12.146;2024-02-21T22:07:34;9.80;93.00
4090;DHT22;2059;48.538;12.146;2024-02-21T22:12:35;9.80;92.30
4090;DHT22;2059;48.538;12.146;2024-02-21T22:17:37;9.70;92.30
4090;DHT22;2059;48.538;12.146;2024-02-21T22:22:40;9.60;92.60
4090;DHT22;2059;48.538;12.146;2024-02-21T22:27:43;9.70;92.80
4090;DHT22;2059;48.538;12.146;2024-02-21T22:32:45;9.60;92.50
4090;DHT22;2059;48.538;12.146;2024-02-21T22:37:49;9.80;92.20
4090;DHT22;2059;48.538;12.146;2024-02-21T22:42:51;9.70;92.80
4090;DHT22;2059;48.538;12.146;2024-02-21T22:47:54;9.70;93.30
4090;DHT22;2059;48.538;12.146;2024-02-21T22:52:58;9.70;93.10
4090;DHT22;2059;48.538;12.146;2024-02-21T22:58:00;9.50;93.70
4090;DHT22;2059;48.538;12.146;2024-02-21T23:03:03;9.80;93.40
4090;DHT22;2059;48.538;12.146;2024-02-21T23:08:06;9.50;93.70
4090;DHT22;2059;48.538;12.146;2024-02-21T23:13:09;9.60;93.90
4090;DHT22;2059;48.538;12.146;2024-02-21T23:18:10;9.50;94.40
4090;DHT22;2059;48.538;12.146;2024-02-21T23:23:13;9.50;94.60
4090;DHT22;2059;48.538;12.146;2024-02-21T23:28:15;10.00;94.00
4090;DHT22;2059;48.538;12.146;2024-02-21T23:33:17;9.90;94.30
4090;DHT22;2059;48.538;12.146;2024-02-21T23:38:20;9.80;94.60
4090;DHT22;2059;48.538;12.146;2024-02-21T23:43:22;10.10;94.20
4090;DHT22;2059;48.538;12.146;2024-02-21T23:48:24;9.70;95.50
4090;DHT22;2059;48.538;12.146;2024-02-21T23:53:27;9.90;95.80
4090;DHT22;2059;48.538;12.146;2024-02-21T23:58:29;9.70;96.40
